• Join FlightAware (Why Join?)
  • Login
  • US Flag 
08:55AM EDT


 

Airport Tracker/Info


-or-


 

Live Flight TrackerFlight Track Log ✈ WWW741 ✈ 03-May-2013 ✈ KLAS - KTNX

Flight Track Log - Related Links

Times and Time Zones

All times are in EDT time to prevent confusion due to time zone crossing. See the WWW741 flight status page for this flight to view local times or setup timezone preferences in your user account.

Time Position Orientation Groundspeed Altitude Reporting Facility
EDT Latitude Longitude Course Direction KTS MPH feet Rate Location/Type
11:03AM 36.0753 -115.1739 271° West 148 170 3,400  Level Los Angeles Center
11:05AM 36.0761 -115.2919 271° West 256 295 8,200 3,180 Climbing Los Angeles Center
11:06AM 36.1183 -115.3739 303° West 292 336 11,700 3,600 Climbing Los Angeles Center
11:07AM 36.2011 -115.4406 327° Northwest 340 391 15,700 3,660 Climbing Los Angeles Center
11:08AM 36.2814 -115.5186 322° Northwest 364 419 19,300 2,040 Climbing Los Angeles Center
11:09AM 36.3503 -115.6406 305° West 393 452 20,000 300 Climbing Los Angeles Center
11:10AM 36.4139 -115.7536 305° West 396 456 20,000  Level Los Angeles Center
11:11AM 36.4953 -115.8997 305° West 396 456 20,000  Level Los Angeles Center
11:12AM 36.5575 -116.0103 305° West 400 460 20,000  Level Los Angeles Center
11:13AM 36.6478 -116.0867 326° Northwest 403 464 20,000  Level Los Angeles Center
11:14AM 36.7483 -116.1483 334° Northwest 400 460 20,000  Level Los Angeles Center
11:15AM 36.8667 -116.2222 333° Northwest 398 458 20,000  Level Los Angeles Center
11:16AM 36.9669 -116.2842 334° Northwest 399 459 20,000 -360 Level Los Angeles Center
11:17AM 37.0633 -116.3458 333° Northwest 393 452 19,300 -1,320 Descending Los Angeles Center
11:18AM 37.1508 -116.4008 333° Northwest 361 415 17,300 -2,220 Descending Los Angeles Center
11:19AM 37.2381 -116.4553 334° Northwest 351 404 14,800 -2,400 Descending Los Angeles Center
11:20AM 37.3219 -116.5094 333° Northwest 342 394 12,400 -1,920 Descending Los Angeles Center
11:21AM 37.4164 -116.5653 335° Northwest 314 361 10,900 -1,620 Descending Los Angeles Center
11:23AM 37.4894 -116.6081 335° Northwest 292 336 9,100 -1,260 Descending Los Angeles Center
11:24AM 37.5581 -116.6472 336° Northwest 277 319 8,400 -660 Descending Los Angeles Center
11:25AM 37.6242 -116.6867 335° Northwest 268 308 7,800 -540 Descending Los Angeles Center
11:26AM 37.6853 -116.7228 335° Northwest 255 293 7,400 -540 Descending Los Angeles Center
11:27AM 37.7275 -116.7436 339° North 196 226 6,700 -780 Descending Los Angeles Center
11:28AM 37.7708 -116.7678 336° Northwest 158 182 5,800 -600 Descending Los Angeles Center
11:29AM 37.7992 -116.7819 338° Northwest 147 169 5,500 -300 Descending Los Angeles Center